Terminal Aerodrome Forecast
Issued by NWS San Angelo, TX

Home | Current Version | Previous Version | Text Only | Print | Product List | Glossary On
Versions: 1 2 3 4 5 6 7 8 9 10 11 12 13
581
FTUS44 KSJT 251120
TAFSJT
TAF
KSJT 251120Z 2512/2612 18005KT P6SM FEW250
     FM251800 10010KT P6SM SCT080
     FM260300 13007KT P6SM SCT200=

USA.gov is the U.S. government's official web portal to all federal, state and local government web resources and services.